createdAt,value
2018-08-09T00:00:01.341Z,25.72
2018-08-09T00:00:11.340Z,25.71
2018-08-09T00:00:21.358Z,25.72
2018-08-09T00:00:31.355Z,25.74
2018-08-09T00:00:41.395Z,25.67
2018-08-09T00:00:51.395Z,25.74
2018-08-09T00:01:01.408Z,25.67
2018-08-09T00:01:11.425Z,25.67
2018-08-09T00:01:21.435Z,25.68
2018-08-09T00:01:31.443Z,25.71
2018-08-09T00:01:41.482Z,25.7
2018-08-09T00:01:51.485Z,25.71
2018-08-09T00:02:01.474Z,25.78
2018-08-09T00:02:11.501Z,25.74
2018-08-09T00:02:21.526Z,25.67
2018-08-09T00:02:31.534Z,25.67
2018-08-09T00:02:41.545Z,25.74
2018-08-09T00:02:51.585Z,25.78
2018-08-09T00:03:01.584Z,25.71
2018-08-09T00:03:11.576Z,25.71
2018-08-09T00:03:21.621Z,25.71
2018-08-09T00:03:31.615Z,25.72
2018-08-09T00:03:41.617Z,25.74
2018-08-09T00:03:51.646Z,25.72
2018-08-09T00:04:01.655Z,25.71
2018-08-09T00:04:11.656Z,25.72
2018-08-09T00:04:21.677Z,25.7
2018-08-09T00:04:31.695Z,25.71
2018-08-09T00:04:41.715Z,25.67
2018-08-09T00:04:51.724Z,25.72
2018-08-09T00:05:01.742Z,25.74
2018-08-09T00:05:11.755Z,25.71
2018-08-09T00:05:21.756Z,25.71
2018-08-09T00:05:31.799Z,25.7
2018-08-09T00:05:41.805Z,25.71
2018-08-09T00:05:51.795Z,25.71
2018-08-09T00:06:01.819Z,25.72
2018-08-09T00:06:11.836Z,25.72
2018-08-09T00:06:21.835Z,25.72
2018-08-09T00:06:31.856Z,25.71
2018-08-09T00:06:41.876Z,25.74
2018-08-09T00:06:51.905Z,25.72
2018-08-09T00:07:01.898Z,25.7
2018-08-09T00:07:11.924Z,25.71
2018-08-09T00:07:21.935Z,25.74
2018-08-09T00:07:31.935Z,25.72
2018-08-09T00:07:42.009Z,25.72
2018-08-09T00:07:51.976Z,25.71
2018-08-09T00:08:01.980Z,25.67
2018-08-09T00:08:12.001Z,25.7
2018-08-09T00:08:22.016Z,25.7
2018-08-09T00:08:32.026Z,25.74
2018-08-09T00:08:42.036Z,25.71
2018-08-09T00:08:52.056Z,25.67
2018-08-09T00:09:02.056Z,25.72
2018-08-09T00:09:12.077Z,25.71
2018-08-09T00:09:22.107Z,25.71
2018-08-09T00:09:32.115Z,25.68
2018-08-09T00:09:42.125Z,25.71
2018-08-09T00:09:52.136Z,25.7
2018-08-09T00:10:02.173Z,25.67
2018-08-09T00:10:12.156Z,25.71
2018-08-09T00:10:22.189Z,25.68
2018-08-09T00:10:32.186Z,25.67
2018-08-09T00:10:42.194Z,25.67
2018-08-09T00:10:52.215Z,25.67
2018-08-09T00:11:02.239Z,25.7
2018-08-09T00:11:12.237Z,25.74
2018-08-09T00:11:22.261Z,25.65
2018-08-09T00:11:32.278Z,25.65
2018-08-09T00:11:42.278Z,25.7
2018-08-09T00:11:52.286Z,25.68
2018-08-09T00:12:02.325Z,25.67
2018-08-09T00:12:12.365Z,25.67
2018-08-09T00:12:22.327Z,25.67
2018-08-09T00:12:32.357Z,25.6
2018-08-09T00:12:42.377Z,25.65
2018-08-09T00:12:52.378Z,25.65
2018-08-09T00:13:02.397Z,25.67
2018-08-09T00:13:12.435Z,25.7
2018-08-09T00:13:22.416Z,25.7
2018-08-09T00:13:32.444Z,25.74
2018-08-09T00:13:42.468Z,25.64
2018-08-09T00:13:52.457Z,25.75
2018-08-09T00:14:02.490Z,25.72
2018-08-09T00:14:12.503Z,25.68
2018-08-09T00:14:22.517Z,25.7
2018-08-09T00:14:32.526Z,25.57
2018-08-09T00:14:42.540Z,25.67
2018-08-09T00:14:52.556Z,25.67
2018-08-09T00:15:02.556Z,25.68
2018-08-09T00:15:12.576Z,25.71
2018-08-09T00:15:22.604Z,25.7
2018-08-09T00:15:32.596Z,25.7
2018-08-09T00:15:42.629Z,25.7
2018-08-09T00:15:52.636Z,25.68
2018-08-09T00:16:02.637Z,25.65
2018-08-09T00:16:12.661Z,25.7
2018-08-09T00:16:22.677Z,25.74
2018-08-09T00:16:32.727Z,25.62
2018-08-09T00:16:42.707Z,25.56
2018-08-09T00:16:52.729Z,25.71
2018-08-09T00:17:02.737Z,25.67
2018-08-09T00:17:12.737Z,25.57
2018-08-09T00:17:22.760Z,25.7
2018-08-09T00:17:32.776Z,25.64
2018-08-09T00:17:42.787Z,25.59
2018-08-09T00:17:52.817Z,25.72
2018-08-09T00:18:02.808Z,25.64
2018-08-09T00:18:12.829Z,25.59
2018-08-09T00:18:22.836Z,25.67
2018-08-09T00:18:32.858Z,25.71
2018-08-09T00:18:42.859Z,25.68
2018-08-09T00:18:52.881Z,25.56
2018-08-09T00:19:02.898Z,25.67
2018-08-09T00:19:12.917Z,25.59
2018-08-09T00:19:22.917Z,25.7
2018-08-09T00:19:32.938Z,25.64
2018-08-09T00:19:42.959Z,25.67
2018-08-09T00:19:52.957Z,25.7
2018-08-09T00:20:02.978Z,25.59
2018-08-09T00:20:13.001Z,25.56
2018-08-09T00:20:23.006Z,25.57
2018-08-09T00:20:33.018Z,25.6
2018-08-09T00:20:43.040Z,25.6
2018-08-09T00:20:53.045Z,25.6
2018-08-09T00:21:03.058Z,25.67
2018-08-09T00:21:13.085Z,25.64
2018-08-09T00:21:23.098Z,25.56
2018-08-09T00:21:33.117Z,25.68
2018-08-09T00:21:43.118Z,25.59
2018-08-09T00:21:53.138Z,25.53
2018-08-09T00:22:03.140Z,25.6
2018-08-09T00:22:13.160Z,25.64
2018-08-09T00:22:23.186Z,25.56
2018-08-09T00:22:33.177Z,25.56
2018-08-09T00:22:43.199Z,25.55
2018-08-09T00:22:53.217Z,25.6
2018-08-09T00:23:03.236Z,25.59
2018-08-09T00:23:13.247Z,25.55
2018-08-09T00:23:23.278Z,25.71
2018-08-09T00:23:33.278Z,25.65
2018-08-09T00:23:43.290Z,25.6
2018-08-09T00:23:53.402Z,25.57
2018-08-09T00:24:03.320Z,25.59
2018-08-09T00:24:13.321Z,25.57
2018-08-09T00:24:23.349Z,25.55
2018-08-09T00:24:33.372Z,25.56
2018-08-09T00:24:43.392Z,25.57
2018-08-09T00:24:53.377Z,25.59
2018-08-09T00:25:03.408Z,25.65
2018-08-09T00:25:13.409Z,25.56
2018-08-09T00:25:23.431Z,25.56
2018-08-09T00:25:33.448Z,25.59
2018-08-09T00:25:43.458Z,25.68
2018-08-09T00:25:53.457Z,25.59
2018-08-09T00:26:03.478Z,25.56
2018-08-09T00:26:13.500Z,25.59
2018-08-09T00:26:23.498Z,25.62
2018-08-09T00:26:33.520Z,25.65
2018-08-09T00:26:43.538Z,25.59
2018-08-09T00:26:53.542Z,25.56
2018-08-09T00:27:03.568Z,25.57
2018-08-09T00:27:13.589Z,25.59
2018-08-09T00:27:23.589Z,25.56
2018-08-09T00:27:33.598Z,25.59
2018-08-09T00:27:43.609Z,25.56
2018-08-09T00:27:53.619Z,25.6
2018-08-09T00:28:03.639Z,25.56
2018-08-09T00:28:13.667Z,25.68
2018-08-09T00:28:23.658Z,25.56
2018-08-09T00:28:33.689Z,25.56
2018-08-09T00:28:43.699Z,25.59
2018-08-09T00:28:53.698Z,25.55
2018-08-09T00:29:03.720Z,25.6
2018-08-09T00:29:13.738Z,25.56
2018-08-09T00:29:23.740Z,25.53
2018-08-09T00:29:33.769Z,25.55
2018-08-09T00:29:43.779Z,25.56
2018-08-09T00:29:53.783Z,25.55
2018-08-09T00:30:03.798Z,25.57
2018-08-09T00:30:13.821Z,25.6
2018-08-09T00:30:23.829Z,25.57
2018-08-09T00:30:33.847Z,25.57
2018-08-09T00:30:43.870Z,25.56
2018-08-09T00:30:53.889Z,25.59
2018-08-09T00:31:03.925Z,25.62
2018-08-09T00:31:13.902Z,25.57
2018-08-09T00:31:23.941Z,25.56
2018-08-09T00:31:33.950Z,25.55
2018-08-09T00:31:43.956Z,25.55
2018-08-09T00:31:53.958Z,25.56
2018-08-09T00:32:03.958Z,25.65
2018-08-09T00:32:13.979Z,25.6
2018-08-09T00:32:24.030Z,25.62
2018-08-09T00:32:34.009Z,25.57
2018-08-09T00:32:44.019Z,25.55
2018-08-09T00:32:54.039Z,25.57
2018-08-09T00:33:04.062Z,25.6
2018-08-09T00:33:14.072Z,25.65
2018-08-09T00:33:24.089Z,25.55
2018-08-09T00:33:34.099Z,25.6
2018-08-09T00:33:44.099Z,25.62
2018-08-09T00:33:54.120Z,25.65
2018-08-09T00:34:04.148Z,25.6
2018-08-09T00:34:14.140Z,25.59
2018-08-09T00:34:24.163Z,25.62
2018-08-09T00:34:34.180Z,25.62
2018-08-09T00:34:44.180Z,25.56
2018-08-09T00:34:54.207Z,25.55
2018-08-09T00:35:04.221Z,25.59
2018-08-09T00:35:14.250Z,25.6
2018-08-09T00:35:24.246Z,25.56
2018-08-09T00:35:34.264Z,25.65
2018-08-09T00:35:44.279Z,25.6
2018-08-09T00:35:54.280Z,25.6
2018-08-09T00:36:04.299Z,25.6
2018-08-09T00:36:14.331Z,25.6
2018-08-09T00:36:24.320Z,25.65
2018-08-09T00:36:34.345Z,25.57
2018-08-09T00:36:44.371Z,25.55
2018-08-09T00:36:54.360Z,25.65
2018-08-09T00:37:04.380Z,25.57
2018-08-09T00:37:14.399Z,25.57
2018-08-09T00:37:24.419Z,25.62
2018-08-09T00:37:34.439Z,25.59
2018-08-09T00:37:44.445Z,25.65
2018-08-09T00:37:54.472Z,25.62
2018-08-09T00:38:04.460Z,25.59
2018-08-09T00:38:14.479Z,25.55
2018-08-09T00:38:24.519Z,25.57
2018-08-09T00:38:34.519Z,25.6
2018-08-09T00:38:44.522Z,25.64
2018-08-09T00:38:54.545Z,25.56
2018-08-09T00:39:04.549Z,25.57
2018-08-09T00:39:14.569Z,25.56
2018-08-09T00:39:24.580Z,25.6
2018-08-09T00:39:34.590Z,25.62
2018-08-09T00:39:44.613Z,25.56
2018-08-09T00:39:54.619Z,25.65
2018-08-09T00:40:04.640Z,25.62
2018-08-09T00:40:14.640Z,25.62
2018-08-09T00:40:24.661Z,25.6
2018-08-09T00:40:34.689Z,25.56
2018-08-09T00:40:44.679Z,25.59
2018-08-09T00:40:54.700Z,25.57
2018-08-09T00:41:04.719Z,25.55
2018-08-09T00:41:14.734Z,25.59
2018-08-09T00:41:24.749Z,25.59
2018-08-09T00:41:34.759Z,25.6
2018-08-09T00:41:44.760Z,25.6
2018-08-09T00:41:54.783Z,25.59
2018-08-09T00:42:04.802Z,25.6
2018-08-09T00:42:14.816Z,25.56
2018-08-09T00:42:24.830Z,25.57
2018-08-09T00:42:34.830Z,25.5
2018-08-09T00:42:44.861Z,25.59
2018-08-09T00:42:54.862Z,25.62
2018-08-09T00:43:04.924Z,25.62
2018-08-09T00:43:14.900Z,25.65
2018-08-09T00:43:24.910Z,25.59
2018-08-09T00:43:34.928Z,25.53
2018-08-09T00:43:44.941Z,25.59
2018-08-09T00:43:54.941Z,25.7
2018-08-09T00:44:04.965Z,25.52
2018-08-09T00:44:14.989Z,25.57
2018-08-09T00:44:24.980Z,25.5
2018-08-09T00:44:34.993Z,25.56
2018-08-09T00:44:45.022Z,25.67
2018-08-09T00:44:55.054Z,25.55
2018-08-09T00:45:05.041Z,25.64
2018-08-09T00:45:15.062Z,25.57
2018-08-09T00:45:25.082Z,25.68
2018-08-09T00:45:35.081Z,25.62
2018-08-09T00:45:45.101Z,25.57
2018-08-09T00:45:55.135Z,25.49
2018-08-09T00:46:05.113Z,25.56
2018-08-09T00:46:15.137Z,25.59
2018-08-09T00:46:25.155Z,25.67
2018-08-09T00:46:35.170Z,25.47
2018-08-09T00:46:45.189Z,25.57
2018-08-09T00:46:55.201Z,25.55
2018-08-09T00:47:05.211Z,25.5
2018-08-09T00:47:15.222Z,25.55
2018-08-09T00:47:25.253Z,25.56
2018-08-09T00:47:35.270Z,25.56
2018-08-09T00:47:45.260Z,25.56
2018-08-09T00:47:55.281Z,25.5
2018-08-09T00:48:05.300Z,25.52
2018-08-09T00:48:15.301Z,25.49
2018-08-09T00:48:25.330Z,25.52
2018-08-09T00:48:35.330Z,25.5
2018-08-09T00:48:45.351Z,25.62
2018-08-09T00:48:55.351Z,25.59
2018-08-09T00:49:05.392Z,25.52
2018-08-09T00:49:15.371Z,25.57
2018-08-09T00:49:25.405Z,25.49
2018-08-09T00:49:35.420Z,25.62
2018-08-09T00:49:45.442Z,25.56
2018-08-09T00:49:55.444Z,25.49
2018-08-09T00:50:05.462Z,25.6
2018-08-09T00:50:15.482Z,25.5
2018-08-09T00:50:25.471Z,25.55
2018-08-09T00:50:35.512Z,25.62
2018-08-09T00:50:45.531Z,25.55
2018-08-09T00:50:55.523Z,25.6
2018-08-09T00:51:05.549Z,25.57
2018-08-09T00:51:15.551Z,25.59
2018-08-09T00:51:25.579Z,25.52
2018-08-09T00:51:35.571Z,25.57
2018-08-09T00:51:45.601Z,25.6
2018-08-09T00:51:55.591Z,25.6
2018-08-09T00:52:05.611Z,25.55
2018-08-09T00:52:15.631Z,25.62
2018-08-09T00:52:25.651Z,25.55
2018-08-09T00:52:35.651Z,25.57
2018-08-09T00:52:45.685Z,25.47
2018-08-09T00:52:55.691Z,25.53
2018-08-09T00:53:05.711Z,25.55
2018-08-09T00:53:15.721Z,25.57
2018-08-09T00:53:25.731Z,25.47
2018-08-09T00:53:35.762Z,25.49
2018-08-09T00:53:45.771Z,25.57
2018-08-09T00:53:55.771Z,25.57
2018-08-09T00:54:05.802Z,25.52
2018-08-09T00:54:15.813Z,25.47
2018-08-09T00:54:25.811Z,25.5
2018-08-09T00:54:35.835Z,25.56
2018-08-09T00:54:45.851Z,25.57
2018-08-09T00:54:55.859Z,25.55
2018-08-09T00:55:05.870Z,25.52
2018-08-09T00:55:15.904Z,25.52
2018-08-09T00:55:25.901Z,25.47
2018-08-09T00:55:35.931Z,25.49
2018-08-09T00:55:45.956Z,25.49
2018-08-09T00:55:55.931Z,25.53
2018-08-09T00:56:05.961Z,25.6
2018-08-09T00:56:15.982Z,25.56
2018-08-09T00:56:25.995Z,25.64
2018-08-09T00:56:35.991Z,25.52
2018-08-09T00:56:46.022Z,25.6
2018-08-09T00:56:56.031Z,25.49
2018-08-09T00:57:06.032Z,25.57
2018-08-09T00:57:16.051Z,25.47
2018-08-09T00:57:26.073Z,25.57
2018-08-09T00:57:36.074Z,25.59
2018-08-09T00:57:46.103Z,25.62
2018-08-09T00:57:56.112Z,25.56
2018-08-09T00:58:06.123Z,25.5
2018-08-09T00:58:16.132Z,25.57
2018-08-09T00:58:26.166Z,25.49
2018-08-09T00:58:36.183Z,25.52
2018-08-09T00:58:46.174Z,25.6
2018-08-09T00:58:56.230Z,25.47
2018-08-09T00:59:06.212Z,25.53
2018-08-09T00:59:16.213Z,25.55
2018-08-09T00:59:26.255Z,25.52
2018-08-09T00:59:36.252Z,25.64
2018-08-09T00:59:46.253Z,25.57
2018-08-09T00:59:56.273Z,25.52
2018-08-09T01:00:06.313Z,25.52
2018-08-09T01:00:16.295Z,25.52
2018-08-09T01:00:26.343Z,25.6
2018-08-09T01:00:36.363Z,25.5
2018-08-09T01:00:46.364Z,25.49
2018-08-09T01:00:56.353Z,25.53
2018-08-09T01:01:06.373Z,25.52
2018-08-09T01:01:16.394Z,25.5
2018-08-09T01:01:26.413Z,25.52
2018-08-09T01:01:36.414Z,25.47
2018-08-09T01:01:46.432Z,25.49
2018-08-09T01:01:56.442Z,25.59
2018-08-09T01:02:06.453Z,25.56
2018-08-09T01:02:16.482Z,25.59
2018-08-09T01:02:26.473Z,25.47
2018-08-09T01:02:36.500Z,25.57
2018-08-09T01:02:46.513Z,25.55
2018-08-09T01:02:56.512Z,25.5
2018-08-09T01:03:06.532Z,25.53
2018-08-09T01:03:16.553Z,25.59
2018-08-09T01:03:26.583Z,25.49
2018-08-09T01:03:36.583Z,25.6
2018-08-09T01:03:46.602Z,25.49
2018-08-09T01:03:56.630Z,25.53
2018-08-09T01:04:06.622Z,25.52
2018-08-09T01:04:16.643Z,25.5
2018-08-09T01:04:26.673Z,25.49
2018-08-09T01:04:36.662Z,25.49
2018-08-09T01:04:46.685Z,25.57
2018-08-09T01:04:56.700Z,25.52
2018-08-09T01:05:06.703Z,25.52
2018-08-09T01:05:16.724Z,25.5
2018-08-09T01:05:26.734Z,25.5
2018-08-09T01:05:36.733Z,25.55
2018-08-09T01:05:46.769Z,25.5
2018-08-09T01:05:56.790Z,25.47
2018-08-09T01:06:06.804Z,25.55
2018-08-09T01:06:16.796Z,25.52
2018-08-09T01:06:26.813Z,25.52
2018-08-09T01:06:36.850Z,25.47
2018-08-09T01:06:46.844Z,25.47
2018-08-09T01:06:56.854Z,25.52
2018-08-09T01:07:06.873Z,25.53
2018-08-09T01:07:16.873Z,25.55
2018-08-09T01:07:26.892Z,25.5
2018-08-09T01:07:36.926Z,25.56
2018-08-09T01:07:46.914Z,25.56
2018-08-09T01:07:56.934Z,25.47
2018-08-09T01:08:06.953Z,25.5
2018-08-09T01:08:16.994Z,25.5
2018-08-09T01:08:26.983Z,25.5
2018-08-09T01:08:37.018Z,25.5
2018-08-09T01:08:47.029Z,25.6
2018-08-09T01:08:57.024Z,25.49
2018-08-09T01:09:07.046Z,25.52
2018-08-09T01:09:17.058Z,25.6
2018-08-09T01:09:27.055Z,25.52
2018-08-09T01:09:37.101Z,25.49
2018-08-09T01:09:47.093Z,25.5
2018-08-09T01:09:57.101Z,25.5
2018-08-09T01:10:07.117Z,25.5
2018-08-09T01:10:17.145Z,25.49
2018-08-09T01:10:27.134Z,25.47
2018-08-09T01:10:37.171Z,25.47
2018-08-09T01:10:47.174Z,25.42
2018-08-09T01:10:57.216Z,25.56
2018-08-09T01:11:07.194Z,25.56
2018-08-09T01:11:17.217Z,25.5
2018-08-09T01:11:27.258Z,25.49
2018-08-09T01:11:37.234Z,25.5
2018-08-09T01:11:47.283Z,25.49
2018-08-09T01:11:57.274Z,25.53
2018-08-09T01:12:07.280Z,25.5
2018-08-09T01:12:17.294Z,25.47
2018-08-09T01:12:27.313Z,25.5
2018-08-09T01:12:37.325Z,25.53
2018-08-09T01:12:47.335Z,25.42
2018-08-09T01:12:57.354Z,25.55
2018-08-09T01:13:07.383Z,25.52
2018-08-09T01:13:17.375Z,25.47
2018-08-09T01:13:27.407Z,25.53
2018-08-09T01:13:37.424Z,25.5
2018-08-09T01:13:47.415Z,25.5
2018-08-09T01:13:57.441Z,25.49
2018-08-09T01:14:07.458Z,25.47
2018-08-09T01:14:17.474Z,25.52
2018-08-09T01:14:27.474Z,25.5
2018-08-09T01:14:37.501Z,25.49
2018-08-09T01:14:47.495Z,25.5
2018-08-09T01:14:57.520Z,25.47
2018-08-09T01:15:07.535Z,25.5
2018-08-09T01:15:17.535Z,25.5
2018-08-09T01:15:27.566Z,25.49
2018-08-09T01:15:37.545Z,25.49
2018-08-09T01:15:47.596Z,25.49
2018-08-09T01:15:57.615Z,25.47
2018-08-09T01:16:07.614Z,25.5
2018-08-09T01:16:17.634Z,25.5
2018-08-09T01:16:27.648Z,25.45
2018-08-09T01:16:37.655Z,25.47
2018-08-09T01:16:47.685Z,25.49
2018-08-09T01:16:57.684Z,25.52
2018-08-09T01:17:07.706Z,25.52
2018-08-09T01:17:17.714Z,25.52
2018-08-09T01:17:27.727Z,25.49
2018-08-09T01:17:37.738Z,25.5
2018-08-09T01:17:47.754Z,25.49
2018-08-09T01:17:57.757Z,25.49
2018-08-09T01:18:07.775Z,25.5
2018-08-09T01:18:17.813Z,25.49
2018-08-09T01:18:27.821Z,25.52
2018-08-09T01:18:37.833Z,25.47
2018-08-09T01:18:47.834Z,25.5
2018-08-09T01:18:57.855Z,25.52
2018-08-09T01:19:07.863Z,25.46
2018-08-09T01:19:17.874Z,25.5
2018-08-09T01:19:27.905Z,25.5
2018-08-09T01:19:37.898Z,25.45
2018-08-09T01:19:47.914Z,25.52
2018-08-09T01:19:57.946Z,25.47
2018-08-09T01:20:07.937Z,25.49
2018-08-09T01:20:17.955Z,25.47
2018-08-09T01:20:27.976Z,25.49
2018-08-09T01:20:37.994Z,25.47
2018-08-09T01:20:47.995Z,25.47
2018-08-09T01:20:58.022Z,25.5
2018-08-09T01:21:08.046Z,25.45
2018-08-09T01:21:18.046Z,25.52
2018-08-09T01:21:28.056Z,25.47
2018-08-09T01:21:38.076Z,25.49
2018-08-09T01:21:48.076Z,25.49
2018-08-09T01:21:58.096Z,25.49
2018-08-09T01:22:08.121Z,25.52
2018-08-09T01:22:18.736Z,25.46
2018-08-09T01:22:28.135Z,25.49
2018-08-09T01:22:38.156Z,25.49
2018-08-09T01:22:48.166Z,25.53
2018-08-09T01:22:58.176Z,25.49
2018-08-09T01:23:08.211Z,25.52
2018-08-09T01:23:18.226Z,25.55
2018-08-09T01:23:28.216Z,25.49
2018-08-09T01:23:38.236Z,25.5
2018-08-09T01:23:48.256Z,25.5
2018-08-09T01:23:58.256Z,25.5
2018-08-09T01:24:08.291Z,25.49
2018-08-09T01:24:18.306Z,25.5
2018-08-09T01:24:28.299Z,25.5
2018-08-09T01:24:38.316Z,25.47
2018-08-09T01:24:48.306Z,25.52
2018-08-09T01:24:58.344Z,25.45
2018-08-09T01:25:08.356Z,25.47
2018-08-09T01:25:18.385Z,25.52
2018-08-09T01:25:28.376Z,25.59
2018-08-09T01:25:38.408Z,25.47
2018-08-09T01:25:48.436Z,25.47
2018-08-09T01:25:58.429Z,25.47
2018-08-09T01:26:08.436Z,25.5
2018-08-09T01:26:18.464Z,25.53
2018-08-09T01:26:28.476Z,25.46
2018-08-09T01:26:38.476Z,25.5
2018-08-09T01:26:48.500Z,25.5
2018-08-09T01:26:58.516Z,25.52
2018-08-09T01:27:08.516Z,25.52
2018-08-09T01:27:18.546Z,25.52
2018-08-09T01:27:28.676Z,25.52
2018-08-09T01:27:38.576Z,25.49
2018-08-09T01:27:48.578Z,25.47
2018-08-09T01:27:58.596Z,25.53
2018-08-09T01:28:08.616Z,25.47
2018-08-09T01:28:18.637Z,25.47
2018-08-09T01:28:28.646Z,25.47
2018-08-09T01:28:38.661Z,25.5
2018-08-09T01:28:48.677Z,25.53
2018-08-09T01:28:58.677Z,25.49
2018-08-09T01:29:08.707Z,25.5
2018-08-09T01:29:18.717Z,25.49
2018-08-09T01:29:28.726Z,25.49
2018-08-09T01:29:38.737Z,25.49
2018-08-09T01:29:48.767Z,25.49
2018-08-09T01:29:58.757Z,25.5
2018-08-09T01:30:08.777Z,25.5
2018-08-09T01:30:18.801Z,25.5
2018-08-09T01:30:28.814Z,25.47
2018-08-09T01:30:38.807Z,25.49
2018-08-09T01:30:48.837Z,25.53
2018-08-09T01:30:58.856Z,25.52
2018-08-09T01:31:08.856Z,25.49
2018-08-09T01:31:18.877Z,25.47
2018-08-09T01:31:28.907Z,25.49
2018-08-09T01:31:38.897Z,25.49
2018-08-09T01:31:48.921Z,25.55
2018-08-09T01:31:58.937Z,25.47
2018-08-09T01:32:08.936Z,25.49
2018-08-09T01:32:18.960Z,25.53
2018-08-09T01:32:28.992Z,25.5
2018-08-09T01:32:38.997Z,25.47
2018-08-09T01:32:49.066Z,25.47
2018-08-09T01:32:59.162Z,25.53
2018-08-09T01:33:09.060Z,25.47
2018-08-09T01:33:19.043Z,25.46
2018-08-09T01:33:29.068Z,25.52
2018-08-09T01:33:39.087Z,25.47
2018-08-09T01:33:49.077Z,25.55
2018-08-09T01:33:59.108Z,25.52
2018-08-09T01:34:09.117Z,25.5
2018-08-09T01:34:19.117Z,25.5
2018-08-09T01:34:29.137Z,25.47
2018-08-09T01:34:39.161Z,25.49
2018-08-09T01:34:49.158Z,25.49
2018-08-09T01:34:59.177Z,25.49
2018-08-09T01:35:09.197Z,25.53
2018-08-09T01:35:19.224Z,25.52
2018-08-09T01:35:29.224Z,25.49
2018-08-09T01:35:39.237Z,25.49
2018-08-09T01:35:49.258Z,25.49
2018-08-09T01:35:59.256Z,25.47
2018-08-09T01:36:09.298Z,25.42
2018-08-09T01:36:19.306Z,25.45
2018-08-09T01:36:29.297Z,25.46
2018-08-09T01:36:39.319Z,25.49
2018-08-09T01:36:49.348Z,25.49
2018-08-09T01:36:59.348Z,25.52
2018-08-09T01:37:09.358Z,25.47
2018-08-09T01:37:19.385Z,25.49
2018-08-09T01:37:29.381Z,25.46
2018-08-09T01:37:39.401Z,25.42
2018-08-09T01:37:49.419Z,25.49
2018-08-09T01:37:59.419Z,25.52
2018-08-09T01:38:09.437Z,25.45
2018-08-09T01:38:19.468Z,25.45
2018-08-09T01:38:29.478Z,25.49
2018-08-09T01:38:39.498Z,25.49
2018-08-09T01:38:49.497Z,25.53
2018-08-09T01:38:59.518Z,25.42
2018-08-09T01:39:09.541Z,25.46
2018-08-09T01:39:19.539Z,25.46
2018-08-09T01:39:29.558Z,25.49
2018-08-09T01:39:39.568Z,25.47
2018-08-09T01:39:49.578Z,25.45
2018-08-09T01:39:59.698Z,25.45
2018-08-09T01:40:09.609Z,25.47
2018-08-09T01:40:19.617Z,25.45
2018-08-09T01:40:29.638Z,25.47
2018-08-09T01:40:39.675Z,25.47
2018-08-09T01:40:49.668Z,25.5
2018-08-09T01:40:59.681Z,25.42
2018-08-09T01:41:09.708Z,25.46
2018-08-09T01:41:19.697Z,25.49
2018-08-09T01:41:29.718Z,25.47
2018-08-09T01:41:39.737Z,25.4
2018-08-09T01:41:49.750Z,25.45
2018-08-09T01:41:59.765Z,25.47
2018-08-09T01:42:09.777Z,25.41
2018-08-09T01:42:19.777Z,25.49
2018-08-09T01:42:29.808Z,25.49
2018-08-09T01:42:39.827Z,25.42
2018-08-09T01:42:49.828Z,25.41
2018-08-09T01:42:59.856Z,25.5
2018-08-09T01:43:09.858Z,25.49
2018-08-09T01:43:19.878Z,25.46
2018-08-09T01:43:29.865Z,25.4
2018-08-09T01:43:39.900Z,25.47
2018-08-09T01:43:49.917Z,25.46
2018-08-09T01:43:59.927Z,25.41
2018-08-09T01:44:09.950Z,25.46
2018-08-09T01:44:19.981Z,25.45
2018-08-09T01:44:29.959Z,25.49
2018-08-09T01:44:39.978Z,25.47
2018-08-09T01:44:50.011Z,25.46
2018-08-09T01:44:59.998Z,25.49
2018-08-09T01:45:10.027Z,25.45
2018-08-09T01:45:20.049Z,25.47
2018-08-09T01:45:30.049Z,25.42
2018-08-09T01:45:40.063Z,25.47
2018-08-09T01:45:50.079Z,25.46
2018-08-09T01:46:00.114Z,25.46
2018-08-09T01:46:10.106Z,25.46
2018-08-09T01:46:20.138Z,25.49
2018-08-09T01:46:30.141Z,25.5
2018-08-09T01:46:40.145Z,25.49
2018-08-09T01:46:50.159Z,25.46
2018-08-09T01:47:00.179Z,25.46
2018-08-09T01:47:10.185Z,25.49
2018-08-09T01:47:20.198Z,25.53
2018-08-09T01:47:30.228Z,25.46
2018-08-09T01:47:40.228Z,25.47
2018-08-09T01:47:50.250Z,25.47
2018-08-09T01:48:00.266Z,25.52
2018-08-09T01:48:10.278Z,25.47
2018-08-09T01:48:20.279Z,25.45
2018-08-09T01:48:30.314Z,25.49
2018-08-09T01:48:40.329Z,25.41
2018-08-09T01:48:50.324Z,25.49
2018-08-09T01:49:00.358Z,25.5
2018-08-09T01:49:10.359Z,25.49
2018-08-09T01:49:20.358Z,25.45
2018-08-09T01:49:30.389Z,25.45
2018-08-09T01:49:40.401Z,25.41
2018-08-09T01:49:50.398Z,25.46
2018-08-09T01:50:00.421Z,25.46
2018-08-09T01:50:10.439Z,25.41
2018-08-09T01:50:20.442Z,25.4
2018-08-09T01:50:30.458Z,25.46
2018-08-09T01:50:40.479Z,25.45
2018-08-09T01:50:50.509Z,25.4
2018-08-09T01:51:00.509Z,25.37
2018-08-09T01:51:10.519Z,25.46
2018-08-09T01:51:20.529Z,25.38
2018-08-09T01:51:30.547Z,25.41
2018-08-09T01:51:40.560Z,25.4
2018-08-09T01:51:50.587Z,25.41
2018-08-09T01:52:00.581Z,25.49
2018-08-09T01:52:10.601Z,25.41
2018-08-09T01:52:20.628Z,25.46
2018-08-09T01:52:30.637Z,25.37
2018-08-09T01:52:40.640Z,25.46
2018-08-09T01:52:50.667Z,25.41
2018-08-09T01:53:00.659Z,25.46
2018-08-09T01:53:10.680Z,25.46
2018-08-09T01:53:20.718Z,25.45
2018-08-09T01:53:30.720Z,25.4
2018-08-09T01:53:40.719Z,25.41
2018-08-09T01:53:50.750Z,25.45
2018-08-09T01:54:00.768Z,25.46
2018-08-09T01:54:10.769Z,25.47
2018-08-09T01:54:20.780Z,25.37
2018-08-09T01:54:30.800Z,25.4
2018-08-09T01:54:40.802Z,25.47
2018-08-09T01:54:50.819Z,25.46
2018-08-09T01:55:00.840Z,25.45
2018-08-09T01:55:10.848Z,25.42
2018-08-09T01:55:20.870Z,25.46
2018-08-09T01:55:30.890Z,25.38
2018-08-09T01:55:40.890Z,25.45
2018-08-09T01:55:50.910Z,25.38
2018-08-09T01:56:00.919Z,25.46
2018-08-09T01:56:10.949Z,25.32
2018-08-09T01:56:20.959Z,25.41
2018-08-09T01:56:30.974Z,25.46
2018-08-09T01:56:40.979Z,25.46
2018-08-09T01:56:50.983Z,25.42
2018-08-09T01:57:01.003Z,25.45
2018-08-09T01:57:11.020Z,25.4
2018-08-09T01:57:21.031Z,25.46
2018-08-09T01:57:31.056Z,25.37
2018-08-09T01:57:41.070Z,25.45
2018-08-09T01:57:51.060Z,25.4
2018-08-09T01:58:01.091Z,25.34
2018-08-09T01:58:11.111Z,25.41
2018-08-09T01:58:21.130Z,25.47
2018-08-09T01:58:31.128Z,25.38
2018-08-09T01:58:41.211Z,25.41
2018-08-09T01:58:51.159Z,25.4
2018-08-09T01:59:01.162Z,25.38
2018-08-09T01:59:11.188Z,25.38
2018-08-09T01:59:21.219Z,25.41
2018-08-09T01:59:31.199Z,25.49
2018-08-09T01:59:41.221Z,25.41
2018-08-09T01:59:51.250Z,25.41
2018-08-09T02:00:01.315Z,25.47
2018-08-09T02:00:11.271Z,25.41
2018-08-09T02:00:21.281Z,25.4
2018-08-09T02:00:31.291Z,25.4
2018-08-09T02:00:41.301Z,25.42
2018-08-09T02:00:51.329Z,25.49
2018-08-09T02:01:01.343Z,25.41
2018-08-09T02:01:11.341Z,25.41
2018-08-09T02:01:21.371Z,25.46
2018-08-09T02:01:31.381Z,25.38
2018-08-09T02:01:41.381Z,25.4
2018-08-09T02:01:51.413Z,25.42
2018-08-09T02:02:01.430Z,25.38
2018-08-09T02:02:11.421Z,25.4
2018-08-09T02:02:21.440Z,25.4
2018-08-09T02:02:31.461Z,25.4
2018-08-09T02:02:41.469Z,25.46
2018-08-09T02:02:51.491Z,25.41
2018-08-09T02:03:01.511Z,25.4
2018-08-09T02:03:11.504Z,25.38
2018-08-09T02:03:21.523Z,25.4
2018-08-09T02:03:31.540Z,25.45
2018-08-09T02:03:41.571Z,25.4
2018-08-09T02:03:51.570Z,25.35
2018-08-09T02:04:01.581Z,25.37
2018-08-09T02:04:11.600Z,25.37
2018-08-09T02:04:21.610Z,25.41
2018-08-09T02:04:31.665Z,25.42
2018-08-09T02:04:41.703Z,25.38
2018-08-09T02:04:51.746Z,25.34
2018-08-09T02:05:01.749Z,25.35
2018-08-09T02:05:11.681Z,25.38
2018-08-09T02:05:21.686Z,25.4
2018-08-09T02:05:31.711Z,25.41
2018-08-09T02:05:41.726Z,25.38
2018-08-09T02:05:51.728Z,25.4
2018-08-09T02:06:01.741Z,25.37
2018-08-09T02:06:11.760Z,25.34
2018-08-09T02:06:21.782Z,25.41
2018-08-09T02:06:31.791Z,25.34
2018-08-09T02:06:41.821Z,25.41
2018-08-09T02:06:51.820Z,25.37
2018-08-09T02:07:01.831Z,25.35
2018-08-09T02:07:11.843Z,25.37
2018-08-09T02:07:21.875Z,25.37
2018-08-09T02:07:31.842Z,25.38
2018-08-09T02:07:41.892Z,25.38
2018-08-09T02:07:51.901Z,25.34
2018-08-09T02:08:01.901Z,25.35
2018-08-09T02:08:11.922Z,25.4
2018-08-09T02:08:21.943Z,25.46
2018-08-09T02:08:31.963Z,25.42
2018-08-09T02:08:41.971Z,25.38
2018-08-09T02:08:51.981Z,25.35
2018-08-09T02:09:02.001Z,25.42
2018-08-09T02:09:12.002Z,25.35
2018-08-09T02:09:22.022Z,25.42
2018-08-09T02:09:32.050Z,25.37
2018-08-09T02:09:42.063Z,25.42